sensor_id;sensor_type;location;lat;lon;timestamp;P1;durP1;ratioP1;P2;durP2;ratioP2
40793;SDS011;26502;51.886;15.604;2023-05-16T00:04:10;12.10;;;9.30;;
40793;SDS011;26502;51.886;15.604;2023-05-16T00:09:15;13.00;;;10.80;;
40793;SDS011;26502;51.886;15.604;2023-05-16T00:14:22;8.60;;;6.40;;
40793;SDS011;26502;51.886;15.604;2023-05-16T00:19:29;6.30;;;5.70;;
40793;SDS011;26502;51.886;15.604;2023-05-16T00:24:35;6.10;;;5.50;;
40793;SDS011;26502;51.886;15.604;2023-05-16T00:29:41;5.90;;;5.20;;
40793;SDS011;26502;51.886;15.604;2023-05-16T00:34:47;8.30;;;6.30;;
40793;SDS011;26502;51.886;15.604;2023-05-16T00:39:53;17.30;;;8.20;;
40793;SDS011;26502;51.886;15.604;2023-05-16T00:44:59;8.70;;;5.40;;
40793;SDS011;26502;51.886;15.604;2023-05-16T00:50:06;9.00;;;6.00;;
40793;SDS011;26502;51.886;15.604;2023-05-16T00:55:13;5.90;;;5.00;;
40793;SDS011;26502;51.886;15.604;2023-05-16T01:00:19;8.50;;;7.60;;
40793;SDS011;26502;51.886;15.604;2023-05-16T01:05:25;22.10;;;16.80;;
40793;SDS011;26502;51.886;15.604;2023-05-16T01:10:34;13.40;;;10.10;;
40793;SDS011;26502;51.886;15.604;2023-05-16T01:15:45;8.50;;;6.30;;
40793;SDS011;26502;51.886;15.604;2023-05-16T01:20:59;6.10;;;5.40;;
40793;SDS011;26502;51.886;15.604;2023-05-16T01:26:15;6.80;;;4.70;;
40793;SDS011;26502;51.886;15.604;2023-05-16T01:31:22;5.70;;;5.10;;
40793;SDS011;26502;51.886;15.604;2023-05-16T01:36:29;5.60;;;5.10;;
40793;SDS011;26502;51.886;15.604;2023-05-16T01:41:46;6.00;;;5.20;;
40793;SDS011;26502;51.886;15.604;2023-05-16T01:46:58;7.20;;;5.30;;
40793;SDS011;26502;51.886;15.604;2023-05-16T01:52:11;6.30;;;5.60;;
40793;SDS011;26502;51.886;15.604;2023-05-16T01:57:19;6.20;;;5.70;;
40793;SDS011;26502;51.886;15.604;2023-05-16T02:02:31;7.30;;;6.60;;
40793;SDS011;26502;51.886;15.604;2023-05-16T02:07:37;8.00;;;7.00;;
40793;SDS011;26502;51.886;15.604;2023-05-16T02:12:43;11.60;;;7.30;;
40793;SDS011;26502;51.886;15.604;2023-05-16T02:17:49;6.00;;;5.50;;
40793;SDS011;26502;51.886;15.604;2023-05-16T02:22:55;5.00;;;4.60;;
40793;SDS011;26502;51.886;15.604;2023-05-16T02:28:01;7.00;;;5.30;;
40793;SDS011;26502;51.886;15.604;2023-05-16T02:33:07;6.10;;;4.60;;
40793;SDS011;26502;51.886;15.604;2023-05-16T02:38:14;6.50;;;5.00;;
40793;SDS011;26502;51.886;15.604;2023-05-16T02:43:20;6.00;;;5.50;;
40793;SDS011;26502;51.886;15.604;2023-05-16T02:48:26;5.20;;;4.70;;
40793;SDS011;26502;51.886;15.604;2023-05-16T02:53:35;6.90;;;5.50;;
40793;SDS011;26502;51.886;15.604;2023-05-16T02:58:41;5.70;;;5.10;;
40793;SDS011;26502;51.886;15.604;2023-05-16T03:03:49;5.50;;;5.00;;
40793;SDS011;26502;51.886;15.604;2023-05-16T03:08:56;6.60;;;5.40;;
40793;SDS011;26502;51.886;15.604;2023-05-16T03:14:02;6.20;;;5.10;;
40793;SDS011;26502;51.886;15.604;2023-05-16T03:19:07;6.10;;;5.50;;
40793;SDS011;26502;51.886;15.604;2023-05-16T03:24:14;6.50;;;5.90;;
40793;SDS011;26502;51.886;15.604;2023-05-16T03:29:20;7.60;;;5.80;;
40793;SDS011;26502;51.886;15.604;2023-05-16T03:34:26;5.90;;;5.40;;
40793;SDS011;26502;51.886;15.604;2023-05-16T03:39:32;8.90;;;5.90;;
40793;SDS011;26502;51.886;15.604;2023-05-16T03:44:38;7.70;;;6.00;;
40793;SDS011;26502;51.886;15.604;2023-05-16T03:49:44;7.20;;;6.50;;
40793;SDS011;26502;51.886;15.604;2023-05-16T03:54:49;7.30;;;6.60;;
40793;SDS011;26502;51.886;15.604;2023-05-16T03:59:55;7.40;;;6.70;;
40793;SDS011;26502;51.886;15.604;2023-05-16T04:05:01;7.50;;;6.20;;
40793;SDS011;26502;51.886;15.604;2023-05-16T04:10:09;6.90;;;6.20;;
40793;SDS011;26502;51.886;15.604;2023-05-16T04:15:16;8.40;;;7.40;;
40793;SDS011;26502;51.886;15.604;2023-05-16T04:20:22;7.50;;;6.90;;
40793;SDS011;26502;51.886;15.604;2023-05-16T04:25:28;7.40;;;6.70;;
40793;SDS011;26502;51.886;15.604;2023-05-16T04:30:34;8.00;;;7.30;;
40793;SDS011;26502;51.886;15.604;2023-05-16T04:35:40;9.30;;;7.40;;
40793;SDS011;26502;51.886;15.604;2023-05-16T04:40:46;8.00;;;7.20;;
40793;SDS011;26502;51.886;15.604;2023-05-16T04:45:53;9.90;;;7.90;;
40793;SDS011;26502;51.886;15.604;2023-05-16T04:51:00;10.30;;;7.20;;
40793;SDS011;26502;51.886;15.604;2023-05-16T04:56:06;10.40;;;8.60;;
40793;SDS011;26502;51.886;15.604;2023-05-16T05:01:13;10.20;;;8.40;;
40793;SDS011;26502;51.886;15.604;2023-05-16T05:06:19;8.70;;;7.90;;
40793;SDS011;26502;51.886;15.604;2023-05-16T05:11:25;8.60;;;7.90;;
40793;SDS011;26502;51.886;15.604;2023-05-16T05:16:31;11.50;;;10.30;;
40793;SDS011;26502;51.886;15.604;2023-05-16T05:21:37;13.20;;;9.60;;
40793;SDS011;26502;51.886;15.604;2023-05-16T05:26:43;10.10;;;9.00;;
40793;SDS011;26502;51.886;15.604;2023-05-16T05:31:49;13.40;;;11.30;;
40793;SDS011;26502;51.886;15.604;2023-05-16T05:36:55;10.80;;;9.60;;
40793;SDS011;26502;51.886;15.604;2023-05-16T05:42:01;14.10;;;12.00;;
40793;SDS011;26502;51.886;15.604;2023-05-16T05:47:07;10.30;;;9.30;;
40793;SDS011;26502;51.886;15.604;2023-05-16T05:52:14;10.70;;;9.50;;
40793;SDS011;26502;51.886;15.604;2023-05-16T05:57:20;12.60;;;11.20;;
40793;SDS011;26502;51.886;15.604;2023-05-16T06:02:26;11.50;;;10.10;;
40793;SDS011;26502;51.886;15.604;2023-05-16T06:07:33;11.80;;;10.10;;
40793;SDS011;26502;51.886;15.604;2023-05-16T06:12:39;13.20;;;11.80;;
40793;SDS011;26502;51.886;15.604;2023-05-16T06:17:45;13.00;;;11.70;;
40793;SDS011;26502;51.886;15.604;2023-05-16T06:22:51;14.70;;;13.20;;
40793;SDS011;26502;51.886;15.604;2023-05-16T06:27:57;16.20;;;14.60;;
40793;SDS011;26502;51.886;15.604;2023-05-16T06:33:03;15.00;;;13.10;;
40793;SDS011;26502;51.886;15.604;2023-05-16T06:38:09;16.70;;;13.80;;
40793;SDS011;26502;51.886;15.604;2023-05-16T06:43:15;20.10;;;17.10;;
40793;SDS011;26502;51.886;15.604;2023-05-16T06:48:21;19.60;;;16.30;;
40793;SDS011;26502;51.886;15.604;2023-05-16T06:53:27;20.40;;;18.20;;
40793;SDS011;26502;51.886;15.604;2023-05-16T06:58:33;27.70;;;20.90;;
40793;SDS011;26502;51.886;15.604;2023-05-16T07:03:39;23.20;;;19.00;;
40793;SDS011;26502;51.886;15.604;2023-05-16T07:08:45;22.60;;;20.20;;
40793;SDS011;26502;51.886;15.604;2023-05-16T07:13:51;22.40;;;20.00;;
40793;SDS011;26502;51.886;15.604;2023-05-16T07:18:57;20.70;;;18.60;;
40793;SDS011;26502;51.886;15.604;2023-05-16T07:24:03;27.90;;;21.30;;
40793;SDS011;26502;51.886;15.604;2023-05-16T07:29:10;23.10;;;19.80;;
40793;SDS011;26502;51.886;15.604;2023-05-16T07:34:16;22.90;;;19.90;;
40793;SDS011;26502;51.886;15.604;2023-05-16T07:39:22;21.60;;;19.30;;
40793;SDS011;26502;51.886;15.604;2023-05-16T07:44:28;25.40;;;20.90;;
40793;SDS011;26502;51.886;15.604;2023-05-16T07:49:34;21.50;;;18.30;;
40793;SDS011;26502;51.886;15.604;2023-05-16T07:54:40;20.80;;;16.90;;
40793;SDS011;26502;51.886;15.604;2023-05-16T07:59:46;23.40;;;19.50;;
40793;SDS011;26502;51.886;15.604;2023-05-16T08:04:53;23.60;;;20.10;;
40793;SDS011;26502;51.886;15.604;2023-05-16T08:10:00;18.50;;;16.40;;
40793;SDS011;26502;51.886;15.604;2023-05-16T08:15:07;24.00;;;18.10;;
40793;SDS011;26502;51.886;15.604;2023-05-16T08:20:14;23.00;;;19.80;;
40793;SDS011;26502;51.886;15.604;2023-05-16T08:25:20;24.90;;;20.00;;
40793;SDS011;26502;51.886;15.604;2023-05-16T08:30:27;21.60;;;18.70;;
40793;SDS011;26502;51.886;15.604;2023-05-16T08:35:33;19.20;;;17.10;;
40793;SDS011;26502;51.886;15.604;2023-05-16T08:40:39;23.90;;;20.20;;
40793;SDS011;26502;51.886;15.604;2023-05-16T08:45:46;23.00;;;20.40;;
40793;SDS011;26502;51.886;15.604;2023-05-16T08:50:52;21.10;;;18.90;;
40793;SDS011;26502;51.886;15.604;2023-05-16T08:55:58;22.10;;;18.10;;
40793;SDS011;26502;51.886;15.604;2023-05-16T09:01:05;21.40;;;18.40;;
40793;SDS011;26502;51.886;15.604;2023-05-16T09:06:12;24.30;;;19.40;;
40793;SDS011;26502;51.886;15.604;2023-05-16T09:11:19;19.60;;;17.50;;
40793;SDS011;26502;51.886;15.604;2023-05-16T09:16:25;20.60;;;17.20;;
40793;SDS011;26502;51.886;15.604;2023-05-16T09:21:31;20.10;;;16.20;;
40793;SDS011;26502;51.886;15.604;2023-05-16T09:26:38;18.40;;;16.00;;
40793;SDS011;26502;51.886;15.604;2023-05-16T09:31:44;22.10;;;17.40;;
40793;SDS011;26502;51.886;15.604;2023-05-16T09:36:54;20.90;;;17.90;;
40793;SDS011;26502;51.886;15.604;2023-05-16T09:42:00;19.40;;;16.00;;
40793;SDS011;26502;51.886;15.604;2023-05-16T09:47:06;20.40;;;17.10;;
40793;SDS011;26502;51.886;15.604;2023-05-16T09:52:13;22.70;;;16.50;;
40793;SDS011;26502;51.886;15.604;2023-05-16T09:57:19;15.60;;;13.90;;
40793;SDS011;26502;51.886;15.604;2023-05-16T10:07:33;20.20;;;15.50;;
40793;SDS011;26502;51.886;15.604;2023-05-16T10:12:40;17.60;;;14.40;;
40793;SDS011;26502;51.886;15.604;2023-05-16T10:17:48;19.70;;;14.70;;
40793;SDS011;26502;51.886;15.604;2023-05-16T10:22:56;17.80;;;13.50;;
40793;SDS011;26502;51.886;15.604;2023-05-16T10:28:03;18.60;;;12.50;;
40793;SDS011;26502;51.886;15.604;2023-05-16T10:33:12;16.50;;;13.00;;
40793;SDS011;26502;51.886;15.604;2023-05-16T10:38:19;14.90;;;11.80;;
40793;SDS011;26502;51.886;15.604;2023-05-16T10:43:28;15.60;;;12.30;;
40793;SDS011;26502;51.886;15.604;2023-05-16T10:48:35;14.50;;;12.70;;
40793;SDS011;26502;51.886;15.604;2023-05-16T10:53:43;18.90;;;14.40;;
40793;SDS011;26502;51.886;15.604;2023-05-16T10:58:50;18.90;;;15.00;;
40793;SDS011;26502;51.886;15.604;2023-05-16T11:04:02;17.80;;;14.40;;
40793;SDS011;26502;51.886;15.604;2023-05-16T11:09:19;19.70;;;16.40;;
40793;SDS011;26502;51.886;15.604;2023-05-16T11:14:27;19.40;;;15.50;;
40793;SDS011;26502;51.886;15.604;2023-05-16T11:19:43;20.50;;;15.10;;
40793;SDS011;26502;51.886;15.604;2023-05-16T11:24:51;20.00;;;15.20;;
40793;SDS011;26502;51.886;15.604;2023-05-16T11:30:00;16.80;;;13.60;;
40793;SDS011;26502;51.886;15.604;2023-05-16T11:35:15;19.40;;;14.60;;
40793;SDS011;26502;51.886;15.604;2023-05-16T11:40:21;17.90;;;14.30;;
40793;SDS011;26502;51.886;15.604;2023-05-16T11:45:28;20.40;;;14.40;;
40793;SDS011;26502;51.886;15.604;2023-05-16T11:50:34;17.10;;;13.60;;
40793;SDS011;26502;51.886;15.604;2023-05-16T11:55:40;21.60;;;14.00;;
40793;SDS011;26502;51.886;15.604;2023-05-16T12:00:50;19.90;;;14.60;;
40793;SDS011;26502;51.886;15.604;2023-05-16T12:05:56;15.40;;;13.20;;
40793;SDS011;26502;51.886;15.604;2023-05-16T12:11:02;13.80;;;12.20;;
40793;SDS011;26502;51.886;15.604;2023-05-16T12:16:09;18.20;;;13.30;;
40793;SDS011;26502;51.886;15.604;2023-05-16T12:21:16;18.40;;;13.00;;
40793;SDS011;26502;51.886;15.604;2023-05-16T12:26:25;15.80;;;14.00;;
40793;SDS011;26502;51.886;15.604;2023-05-16T12:31:34;17.80;;;14.70;;
40793;SDS011;26502;51.886;15.604;2023-05-16T12:36:41;17.40;;;15.40;;
40793;SDS011;26502;51.886;15.604;2023-05-16T12:41:48;17.00;;;14.30;;
40793;SDS011;26502;51.886;15.604;2023-05-16T12:46:53;16.50;;;14.30;;
40793;SDS011;26502;51.886;15.604;2023-05-16T12:52:00;20.30;;;15.20;;
40793;SDS011;26502;51.886;15.604;2023-05-16T12:57:07;20.70;;;15.50;;
40793;SDS011;26502;51.886;15.604;2023-05-16T13:02:13;22.70;;;17.50;;
40793;SDS011;26502;51.886;15.604;2023-05-16T13:07:20;21.30;;;17.00;;
40793;SDS011;26502;51.886;15.604;2023-05-16T13:12:27;19.50;;;15.90;;
40793;SDS011;26502;51.886;15.604;2023-05-16T13:17:33;23.60;;;17.20;;
40793;SDS011;26502;51.886;15.604;2023-05-16T13:22:40;21.70;;;16.40;;
40793;SDS011;26502;51.886;15.604;2023-05-16T13:27:48;20.60;;;17.70;;
40793;SDS011;26502;51.886;15.604;2023-05-16T13:32:54;23.00;;;16.20;;
40793;SDS011;26502;51.886;15.604;2023-05-16T13:38:02;24.80;;;18.30;;
40793;SDS011;26502;51.886;15.604;2023-05-16T13:43:08;23.80;;;19.50;;
40793;SDS011;26502;51.886;15.604;2023-05-16T13:48:16;23.90;;;20.90;;
40793;SDS011;26502;51.886;15.604;2023-05-16T13:53:22;21.00;;;18.90;;
40793;SDS011;26502;51.886;15.604;2023-05-16T13:58:28;21.70;;;17.50;;
40793;SDS011;26502;51.886;15.604;2023-05-16T14:03:34;21.90;;;17.30;;
40793;SDS011;26502;51.886;15.604;2023-05-16T14:08:40;18.20;;;14.70;;
40793;SDS011;26502;51.886;15.604;2023-05-16T14:13:46;17.60;;;14.40;;
40793;SDS011;26502;51.886;15.604;2023-05-16T14:18:52;17.10;;;14.40;;
40793;SDS011;26502;51.886;15.604;2023-05-16T14:23:58;20.50;;;13.50;;
40793;SDS011;26502;51.886;15.604;2023-05-16T14:29:04;13.60;;;11.90;;
40793;SDS011;26502;51.886;15.604;2023-05-16T14:34:10;17.90;;;14.70;;
40793;SDS011;26502;51.886;15.604;2023-05-16T14:39:16;12.20;;;10.20;;
40793;SDS011;26502;51.886;15.604;2023-05-16T14:44:22;14.90;;;11.60;;
40793;SDS011;26502;51.886;15.604;2023-05-16T14:49:27;16.60;;;14.40;;
40793;SDS011;26502;51.886;15.604;2023-05-16T14:54:34;14.00;;;12.30;;
40793;SDS011;26502;51.886;15.604;2023-05-16T14:59:40;18.70;;;15.40;;
40793;SDS011;26502;51.886;15.604;2023-05-16T15:04:45;18.00;;;14.50;;
40793;SDS011;26502;51.886;15.604;2023-05-16T15:09:52;18.70;;;14.00;;
40793;SDS011;26502;51.886;15.604;2023-05-16T15:14:58;15.00;;;12.90;;
40793;SDS011;26502;51.886;15.604;2023-05-16T15:20:05;12.60;;;11.40;;
40793;SDS011;26502;51.886;15.604;2023-05-16T15:25:13;13.00;;;10.80;;
40793;SDS011;26502;51.886;15.604;2023-05-16T15:30:19;13.20;;;9.90;;
40793;SDS011;26502;51.886;15.604;2023-05-16T15:35:25;11.90;;;8.70;;
40793;SDS011;26502;51.886;15.604;2023-05-16T15:40:31;15.10;;;8.80;;
40793;SDS011;26502;51.886;15.604;2023-05-16T15:45:37;8.90;;;6.80;;
40793;SDS011;26502;51.886;15.604;2023-05-16T15:50:44;7.50;;;6.30;;
40793;SDS011;26502;51.886;15.604;2023-05-16T15:55:50;11.10;;;7.00;;
40793;SDS011;26502;51.886;15.604;2023-05-16T16:00:57;7.30;;;5.70;;
40793;SDS011;26502;51.886;15.604;2023-05-16T16:06:03;9.80;;;6.00;;
40793;SDS011;26502;51.886;15.604;2023-05-16T16:11:09;8.60;;;5.90;;
40793;SDS011;26502;51.886;15.604;2023-05-16T16:16:15;7.40;;;5.20;;
40793;SDS011;26502;51.886;15.604;2023-05-16T16:21:21;10.30;;;5.50;;
40793;SDS011;26502;51.886;15.604;2023-05-16T16:26:27;7.80;;;5.30;;
40793;SDS011;26502;51.886;15.604;2023-05-16T16:31:34;9.00;;;5.10;;
40793;SDS011;26502;51.886;15.604;2023-05-16T16:36:40;6.30;;;4.10;;
40793;SDS011;26502;51.886;15.604;2023-05-16T16:41:46;6.90;;;4.50;;
40793;SDS011;26502;51.886;15.604;2023-05-16T16:46:51;6.60;;;4.20;;
40793;SDS011;26502;51.886;15.604;2023-05-16T16:51:57;7.20;;;3.90;;
40793;SDS011;26502;51.886;15.604;2023-05-16T16:57:03;6.80;;;4.00;;
40793;SDS011;26502;51.886;15.604;2023-05-16T17:02:10;7.40;;;3.90;;
40793;SDS011;26502;51.886;15.604;2023-05-16T17:07:16;9.10;;;4.00;;
40793;SDS011;26502;51.886;15.604;2023-05-16T17:12:22;9.50;;;4.10;;
40793;SDS011;26502;51.886;15.604;2023-05-16T17:17:30;5.80;;;4.00;;
40793;SDS011;26502;51.886;15.604;2023-05-16T17:22:36;4.70;;;2.90;;
40793;SDS011;26502;51.886;15.604;2023-05-16T17:27:42;6.90;;;3.80;;
40793;SDS011;26502;51.886;15.604;2023-05-16T17:32:48;8.30;;;3.60;;
40793;SDS011;26502;51.886;15.604;2023-05-16T17:37:54;5.30;;;3.40;;
40793;SDS011;26502;51.886;15.604;2023-05-16T17:43:00;7.00;;;3.40;;
40793;SDS011;26502;51.886;15.604;2023-05-16T17:48:07;7.90;;;3.40;;
40793;SDS011;26502;51.886;15.604;2023-05-16T17:53:13;5.10;;;3.30;;
40793;SDS011;26502;51.886;15.604;2023-05-16T17:58:19;8.20;;;3.40;;
40793;SDS011;26502;51.886;15.604;2023-05-16T18:03:25;8.50;;;4.00;;
40793;SDS011;26502;51.886;15.604;2023-05-16T18:08:31;8.20;;;3.70;;
40793;SDS011;26502;51.886;15.604;2023-05-16T18:13:37;7.80;;;3.90;;
40793;SDS011;26502;51.886;15.604;2023-05-16T18:18:43;7.60;;;3.80;;
40793;SDS011;26502;51.886;15.604;2023-05-16T18:23:49;11.30;;;4.60;;
40793;SDS011;26502;51.886;15.604;2023-05-16T18:28:56;7.90;;;4.50;;
40793;SDS011;26502;51.886;15.604;2023-05-16T18:34:02;9.60;;;4.30;;
40793;SDS011;26502;51.886;15.604;2023-05-16T18:39:08;8.40;;;4.30;;
40793;SDS011;26502;51.886;15.604;2023-05-16T18:44:14;9.50;;;5.00;;
40793;SDS011;26502;51.886;15.604;2023-05-16T18:49:20;8.00;;;4.80;;
40793;SDS011;26502;51.886;15.604;2023-05-16T18:54:26;9.90;;;4.70;;
40793;SDS011;26502;51.886;15.604;2023-05-16T18:59:32;10.30;;;4.10;;
40793;SDS011;26502;51.886;15.604;2023-05-16T19:04:38;9.00;;;5.30;;
40793;SDS011;26502;51.886;15.604;2023-05-16T19:09:44;7.60;;;5.40;;
40793;SDS011;26502;51.886;15.604;2023-05-16T19:14:50;12.10;;;7.00;;
40793;SDS011;26502;51.886;15.604;2023-05-16T19:19:56;10.00;;;7.30;;
40793;SDS011;26502;51.886;15.604;2023-05-16T19:25:05;7.70;;;5.20;;
40793;SDS011;26502;51.886;15.604;2023-05-16T19:30:12;25.60;;;12.20;;
40793;SDS011;26502;51.886;15.604;2023-05-16T19:35:18;31.40;;;14.70;;
40793;SDS011;26502;51.886;15.604;2023-05-16T19:40:25;27.70;;;12.90;;
40793;SDS011;26502;51.886;15.604;2023-05-16T19:45:31;10.60;;;5.50;;
40793;SDS011;26502;51.886;15.604;2023-05-16T19:50:37;5.90;;;4.10;;
40793;SDS011;26502;51.886;15.604;2023-05-16T19:55:43;5.70;;;3.80;;
40793;SDS011;26502;51.886;15.604;2023-05-16T20:00:51;6.10;;;4.10;;
40793;SDS011;26502;51.886;15.604;2023-05-16T20:05:57;8.50;;;4.00;;
40793;SDS011;26502;51.886;15.604;2023-05-16T20:11:02;7.00;;;4.20;;
40793;SDS011;26502;51.886;15.604;2023-05-16T20:16:09;6.30;;;3.70;;
40793;SDS011;26502;51.886;15.604;2023-05-16T20:21:15;5.80;;;4.00;;
40793;SDS011;26502;51.886;15.604;2023-05-16T20:26:21;8.90;;;4.60;;
40793;SDS011;26502;51.886;15.604;2023-05-16T20:31:26;9.10;;;5.00;;
40793;SDS011;26502;51.886;15.604;2023-05-16T20:36:33;19.20;;;9.10;;
40793;SDS011;26502;51.886;15.604;2023-05-16T20:41:39;15.50;;;7.40;;
40793;SDS011;26502;51.886;15.604;2023-05-16T20:46:45;14.60;;;7.30;;
40793;SDS011;26502;51.886;15.604;2023-05-16T20:51:51;37.80;;;16.90;;
40793;SDS011;26502;51.886;15.604;2023-05-16T20:56:56;32.40;;;17.40;;
40793;SDS011;26502;51.886;15.604;2023-05-16T21:02:03;24.50;;;13.50;;
40793;SDS011;26502;51.886;15.604;2023-05-16T21:07:11;16.30;;;7.90;;
40793;SDS011;26502;51.886;15.604;2023-05-16T21:12:17;31.90;;;20.20;;
40793;SDS011;26502;51.886;15.604;2023-05-16T21:17:23;29.50;;;18.90;;
40793;SDS011;26502;51.886;15.604;2023-05-16T21:22:29;28.20;;;16.60;;
40793;SDS011;26502;51.886;15.604;2023-05-16T21:27:35;17.30;;;10.20;;
40793;SDS011;26502;51.886;15.604;2023-05-16T21:32:41;11.90;;;6.90;;
40793;SDS011;26502;51.886;15.604;2023-05-16T21:37:47;14.70;;;6.10;;
40793;SDS011;26502;51.886;15.604;2023-05-16T21:42:53;10.90;;;5.70;;
40793;SDS011;26502;51.886;15.604;2023-05-16T21:47:59;9.70;;;6.10;;
40793;SDS011;26502;51.886;15.604;2023-05-16T21:53:05;7.40;;;5.00;;
40793;SDS011;26502;51.886;15.604;2023-05-16T21:58:11;9.50;;;4.90;;
40793;SDS011;26502;51.886;15.604;2023-05-16T22:03:17;8.90;;;5.20;;
40793;SDS011;26502;51.886;15.604;2023-05-16T22:08:23;13.60;;;7.30;;
40793;SDS011;26502;51.886;15.604;2023-05-16T22:13:28;10.70;;;6.00;;
40793;SDS011;26502;51.886;15.604;2023-05-16T22:18:35;15.50;;;8.10;;
40793;SDS011;26502;51.886;15.604;2023-05-16T22:23:40;14.10;;;8.10;;
40793;SDS011;26502;51.886;15.604;2023-05-16T22:28:46;15.90;;;7.40;;
40793;SDS011;26502;51.886;15.604;2023-05-16T22:33:52;11.50;;;7.60;;
40793;SDS011;26502;51.886;15.604;2023-05-16T22:38:58;16.10;;;8.10;;
40793;SDS011;26502;51.886;15.604;2023-05-16T22:44:04;13.70;;;8.00;;
40793;SDS011;26502;51.886;15.604;2023-05-16T22:49:10;18.00;;;9.90;;
40793;SDS011;26502;51.886;15.604;2023-05-16T22:54:16;15.20;;;8.70;;
40793;SDS011;26502;51.886;15.604;2023-05-16T22:59:23;13.60;;;8.10;;
40793;SDS011;26502;51.886;15.604;2023-05-16T23:04:28;16.10;;;9.00;;
40793;SDS011;26502;51.886;15.604;2023-05-16T23:09:34;12.80;;;6.80;;
40793;SDS011;26502;51.886;15.604;2023-05-16T23:14:40;9.40;;;4.40;;
40793;SDS011;26502;51.886;15.604;2023-05-16T23:19:46;7.00;;;4.30;;
40793;SDS011;26502;51.886;15.604;2023-05-16T23:24:52;7.40;;;3.70;;
40793;SDS011;26502;51.886;15.604;2023-05-16T23:29:58;10.20;;;3.70;;
40793;SDS011;26502;51.886;15.604;2023-05-16T23:35:05;5.20;;;2.60;;
40793;SDS011;26502;51.886;15.604;2023-05-16T23:40:11;4.40;;;2.40;;
40793;SDS011;26502;51.886;15.604;2023-05-16T23:45:17;6.70;;;2.40;;
40793;SDS011;26502;51.886;15.604;2023-05-16T23:50:23;4.10;;;2.20;;
40793;SDS011;26502;51.886;15.604;2023-05-16T23:55:29;6.90;;;2.40;;
